Wheatley, Kentucky
Current Conditions -  °F | °C
As of 2:53 PM on Wednesday 26 Nov 2014 (Local Time) from KFFT Reporting Station
Clear Clear  
Wind Chill: 42°   Ceiling: Unl
Heat Index: 42°   Visibility: 10mi
Dew Point: 27°   Wind: 0mph
Humidity: 55%   Direction: NA
Pressure: 30.03"   Gusts: NA
Location:  38.4804°N, 84.8067°W
Report Text: KFFT 261953Z AUTO 00000KT 10SM CLR 06/M03 A3003 RMK AO2 SLP173 T00561028
Loading
Personal Weather Stations






























Interactive Weather Map New forecast layout! Learn more

10-Day Weather Forecast

Advertisements
Track Severe Weather on mobile